sensor_id;sensor_type;location;lat;lon;timestamp;pressure;altitude;pressure_sealevel;temperature;humidity
58843;BME280;44614;54.356;10.100;2023-02-22T00:01:08;101398.28;;;4.70;100.00
58843;BME280;44614;54.356;10.100;2023-02-22T00:03:49;101394.19;;;4.66;100.00
58843;BME280;44614;54.356;10.100;2023-02-22T00:06:18;101403.38;;;4.64;100.00
58843;BME280;44614;54.356;10.100;2023-02-22T00:08:46;101402.38;;;4.66;100.00
58843;BME280;44614;54.356;10.100;2023-02-22T00:11:11;101404.22;;;4.65;100.00
58843;BME280;44614;54.356;10.100;2023-02-22T00:13:39;101402.19;;;4.67;100.00
58843;BME280;44614;54.356;10.100;2023-02-22T00:16:08;101399.47;;;4.67;100.00
58843;BME280;44614;54.356;10.100;2023-02-22T00:18:37;101401.16;;;4.68;100.00
58843;BME280;44614;54.356;10.100;2023-02-22T00:21:02;101399.28;;;4.69;100.00
58843;BME280;44614;54.356;10.100;2023-02-22T00:23:29;101409.31;;;4.68;100.00
58843;BME280;44614;54.356;10.100;2023-02-22T00:25:57;101403.72;;;4.70;100.00
58843;BME280;44614;54.356;10.100;2023-02-22T00:28:22;101401.00;;;4.70;100.00
58843;BME280;44614;54.356;10.100;2023-02-22T00:30:51;101394.53;;;4.71;100.00
58843;BME280;44614;54.356;10.100;2023-02-22T00:33:16;101374.81;;;4.60;100.00
58843;BME280;44614;54.356;10.100;2023-02-22T00:35:44;101394.19;;;4.74;100.00
58843;BME280;44614;54.356;10.100;2023-02-22T00:38:11;101389.94;;;4.71;100.00
58843;BME280;44614;54.356;10.100;2023-02-22T00:40:37;101330.09;;;4.38;100.00
58843;BME280;44614;54.356;10.100;2023-02-22T00:43:03;101359.69;;;4.58;100.00
58843;BME280;44614;54.356;10.100;2023-02-22T00:45:31;101390.25;;;4.76;100.00
58843;BME280;44614;54.356;10.100;2023-02-22T00:47:58;101386.19;;;4.72;100.00
58843;BME280;44614;54.356;10.100;2023-02-22T00:50:26;101392.97;;;4.76;100.00
58843;BME280;44614;54.356;10.100;2023-02-22T00:52:52;101356.97;;;4.58;100.00
58843;BME280;44614;54.356;10.100;2023-02-22T00:55:21;101370.38;;;4.59;100.00
58843;BME280;44614;54.356;10.100;2023-02-22T00:57:46;101385.66;;;4.77;100.00
58843;BME280;44614;54.356;10.100;2023-02-22T01:00:17;101388.38;;;4.77;100.00
58843;BME280;44614;54.356;10.100;2023-02-22T01:02:42;101379.06;;;4.71;100.00
58843;BME280;44614;54.356;10.100;2023-02-22T01:05:10;101382.09;;;4.76;100.00
58843;BME280;44614;54.356;10.100;2023-02-22T01:07:40;101384.81;;;4.76;100.00
58843;BME280;44614;54.356;10.100;2023-02-22T01:10:07;101383.97;;;4.76;100.00
58843;BME280;44614;54.356;10.100;2023-02-22T01:12:34;101385.00;;;4.75;100.00
58843;BME280;44614;54.356;10.100;2023-02-22T01:15:00;101372.25;;;4.75;100.00
58843;BME280;44614;54.356;10.100;2023-02-22T01:17:26;101370.69;;;4.73;100.00
58843;BME280;44614;54.356;10.100;2023-02-22T01:19:52;101381.25;;;4.76;100.00
58843;BME280;44614;54.356;10.100;2023-02-22T01:22:19;101370.88;;;4.71;100.00
58843;BME280;44614;54.356;10.100;2023-02-22T01:24:48;101379.56;;;4.75;100.00
58843;BME280;44614;54.356;10.100;2023-02-22T01:27:15;101371.41;;;4.75;100.00
58843;BME280;44614;54.356;10.100;2023-02-22T01:29:40;101376.16;;;4.73;100.00
58843;BME280;44614;54.356;10.100;2023-02-22T01:32:06;101330.97;;;4.47;100.00
58843;BME280;44614;54.356;10.100;2023-02-22T01:34:31;101368.16;;;4.71;100.00
58843;BME280;44614;54.356;10.100;2023-02-22T01:36:58;101364.59;;;4.71;100.00
58843;BME280;44614;54.356;10.100;2023-02-22T01:39:23;101367.66;;;4.59;100.00
58843;BME280;44614;54.356;10.100;2023-02-22T01:41:48;101370.06;;;4.62;100.00
58843;BME280;44614;54.356;10.100;2023-02-22T01:44:19;101365.78;;;4.60;100.00
58843;BME280;44614;54.356;10.100;2023-02-22T01:46:45;101363.78;;;4.62;100.00
58843;BME280;44614;54.356;10.100;2023-02-22T01:49:11;101371.94;;;4.62;100.00
58843;BME280;44614;54.356;10.100;2023-02-22T01:51:47;101362.03;;;4.61;100.00
58843;BME280;44614;54.356;10.100;2023-02-22T01:54:16;101369.22;;;4.62;100.00
58843;BME280;44614;54.356;10.100;2023-02-22T02:00:08;101345.59;;;4.54;100.00
58843;BME280;44614;54.356;10.100;2023-02-22T02:02:36;101357.44;;;4.61;100.00
58843;BME280;44614;54.356;10.100;2023-02-22T02:05:01;101338.09;;;4.48;100.00
58843;BME280;44614;54.356;10.100;2023-02-22T02:07:33;101360.03;;;4.63;100.00
58843;BME280;44614;54.356;10.100;2023-02-22T02:10:03;101362.22;;;4.59;100.00
58843;BME280;44614;54.356;10.100;2023-02-22T02:12:33;101358.31;;;4.62;100.00
58843;BME280;44614;54.356;10.100;2023-02-22T02:15:22;101353.72;;;4.62;100.00
58843;BME280;44614;54.356;10.100;2023-02-22T02:17:48;101357.44;;;4.61;100.00
58843;BME280;44614;54.356;10.100;2023-02-22T02:26:51;101361.03;;;4.70;100.00
58843;BME280;44614;54.356;10.100;2023-02-22T02:37:05;101363.91;;;4.77;100.00
58843;BME280;44614;54.356;10.100;2023-02-22T02:39:44;101352.16;;;4.76;100.00
58843;BME280;44614;54.356;10.100;2023-02-22T02:42:16;101353.69;;;4.79;100.00
58843;BME280;44614;54.356;10.100;2023-02-22T02:45:10;101349.94;;;4.80;100.00
58843;BME280;44614;54.356;10.100;2023-02-22T02:47:41;101356.22;;;4.80;100.00
58843;BME280;44614;54.356;10.100;2023-02-22T02:50:20;101355.91;;;4.83;100.00
58843;BME280;44614;54.356;10.100;2023-02-22T02:52:48;101339.41;;;4.77;100.00
58843;BME280;44614;54.356;10.100;2023-02-22T02:55:16;101343.13;;;4.84;100.00
58843;BME280;44614;54.356;10.100;2023-02-22T02:57:42;101343.97;;;4.84;100.00
58843;BME280;44614;54.356;10.100;2023-02-22T03:00:08;101340.06;;;4.87;100.00
58843;BME280;44614;54.356;10.100;2023-02-22T03:07:50;101333.44;;;4.89;100.00
58843;BME280;44614;54.356;10.100;2023-02-22T03:13:10;101337.00;;;4.90;100.00
58843;BME280;44614;54.356;10.100;2023-02-22T03:15:49;101341.25;;;4.93;100.00
58843;BME280;44614;54.356;10.100;2023-02-22T03:21:09;101331.22;;;4.93;100.00
58843;BME280;44614;54.356;10.100;2023-02-22T03:24:04;101335.63;;;4.94;100.00
58843;BME280;44614;54.356;10.100;2023-02-22T03:26:37;101322.38;;;4.91;100.00
58843;BME280;44614;54.356;10.100;2023-02-22T03:29:05;101330.00;;;4.96;100.00
58843;BME280;44614;54.356;10.100;2023-02-22T03:31:36;101324.41;;;4.97;100.00
58843;BME280;44614;54.356;10.100;2023-02-22T03:34:24;101321.69;;;4.97;100.00
58843;BME280;44614;54.356;10.100;2023-02-22T03:37:13;101318.13;;;4.97;100.00
58843;BME280;44614;54.356;10.100;2023-02-22T03:39:40;101283.63;;;4.73;100.00
58843;BME280;44614;54.356;10.100;2023-02-22T03:42:14;101323.56;;;4.97;100.00
58843;BME280;44614;54.356;10.100;2023-02-22T03:44:42;101288.59;;;4.77;100.00
58843;BME280;44614;54.356;10.100;2023-02-22T03:47:13;101326.09;;;4.98;100.00
58843;BME280;44614;54.356;10.100;2023-02-22T03:50:00;101321.69;;;4.97;100.00
58843;BME280;44614;54.356;10.100;2023-02-22T03:52:32;101321.69;;;4.97;100.00
58843;BME280;44614;54.356;10.100;2023-02-22T03:54:59;101278.19;;;4.73;100.00
58843;BME280;44614;54.356;10.100;2023-02-22T03:57:27;101317.09;;;4.98;100.00
58843;BME280;44614;54.356;10.100;2023-02-22T03:59:56;101314.56;;;4.96;100.00
58843;BME280;44614;54.356;10.100;2023-02-22T04:02:21;101322.72;;;4.96;100.00
58843;BME280;44614;54.356;10.100;2023-02-22T04:04:48;101309.59;;;4.92;100.00
58843;BME280;44614;54.356;10.100;2023-02-22T04:07:14;101310.78;;;4.97;100.00
58843;BME280;44614;54.356;10.100;2023-02-22T04:09:40;101316.25;;;4.97;100.00
58843;BME280;44614;54.356;10.100;2023-02-22T04:12:05;101302.78;;;4.96;100.00
58843;BME280;44614;54.356;10.100;2023-02-22T04:14:31;101313.53;;;4.97;100.00
58843;BME280;44614;54.356;10.100;2023-02-22T04:16:56;101308.22;;;4.96;100.00
58843;BME280;44614;54.356;10.100;2023-02-22T04:19:22;101309.09;;;4.96;100.00
58843;BME280;44614;54.356;10.100;2023-02-22T04:21:48;101309.75;;;4.98;100.00
58843;BME280;44614;54.356;10.100;2023-02-22T04:24:13;101300.44;;;4.93;100.00
58843;BME280;44614;54.356;10.100;2023-02-22T04:26:39;101309.75;;;4.98;100.00
58843;BME280;44614;54.356;10.100;2023-02-22T04:29:04;101307.88;;;4.99;100.00
58843;BME280;44614;54.356;10.100;2023-02-22T04:31:30;101308.06;;;4.97;100.00
58843;BME280;44614;54.356;10.100;2023-02-22T04:33:55;101309.75;;;4.98;100.00
58843;BME280;44614;54.356;10.100;2023-02-22T04:36:21;101311.44;;;4.99;100.00
58843;BME280;44614;54.356;10.100;2023-02-22T04:38:46;101301.41;;;5.00;100.00
58843;BME280;44614;54.356;10.100;2023-02-22T04:41:12;101312.13;;;5.01;100.00
58843;BME280;44614;54.356;10.100;2023-02-22T04:43:37;101310.25;;;5.02;100.00
58843;BME280;44614;54.356;10.100;2023-02-22T04:46:03;101311.94;;;5.03;100.00
58843;BME280;44614;54.356;10.100;2023-02-22T04:48:29;101288.56;;;4.85;100.00
58843;BME280;44614;54.356;10.100;2023-02-22T04:50:54;101315.53;;;5.03;100.00
58843;BME280;44614;54.356;10.100;2023-02-22T04:53:20;101288.22;;;4.88;100.00
58843;BME280;44614;54.356;10.100;2023-02-22T04:55:45;101275.63;;;4.79;100.00
58843;BME280;44614;54.356;10.100;2023-02-22T04:58:11;101318.25;;;5.03;100.00
58843;BME280;44614;54.356;10.100;2023-02-22T05:00:36;101317.41;;;5.03;100.00
58843;BME280;44614;54.356;10.100;2023-02-22T05:03:02;101319.13;;;5.04;100.00
58843;BME280;44614;54.356;10.100;2023-02-22T05:05:27;101312.81;;;5.03;100.00
58843;BME280;44614;54.356;10.100;2023-02-22T05:07:52;101312.63;;;5.05;100.00
58843;BME280;44614;54.356;10.100;2023-02-22T05:10:18;101279.00;;;4.89;100.00
58843;BME280;44614;54.356;10.100;2023-02-22T05:12:44;101310.06;;;5.03;100.00
58843;BME280;44614;54.356;10.100;2023-02-22T05:15:09;101317.41;;;5.03;100.00
58843;BME280;44614;54.356;10.100;2023-02-22T05:17:35;101268.19;;;4.73;100.00
58843;BME280;44614;54.356;10.100;2023-02-22T05:20:02;101314.38;;;4.98;100.00
58843;BME280;44614;54.356;10.100;2023-02-22T05:22:28;101309.25;;;4.95;100.00
58843;BME280;44614;54.356;10.100;2023-02-22T05:24:53;101310.94;;;4.96;100.00
58843;BME280;44614;54.356;10.100;2023-02-22T05:27:19;101289.41;;;4.86;100.00
58843;BME280;44614;54.356;10.100;2023-02-22T05:29:45;101305.69;;;4.94;100.00
58843;BME280;44614;54.356;10.100;2023-02-22T05:32:11;101313.00;;;4.94;100.00
58843;BME280;44614;54.356;10.100;2023-02-22T05:34:37;101307.91;;;4.91;100.00
58843;BME280;44614;54.356;10.100;2023-02-22T05:37:02;101312.19;;;4.93;100.00
58843;BME280;44614;54.356;10.100;2023-02-22T05:39:29;101316.78;;;4.93;100.00
58843;BME280;44614;54.356;10.100;2023-02-22T05:41:54;101324.75;;;4.94;100.00
58843;BME280;44614;54.356;10.100;2023-02-22T05:44:19;101323.72;;;4.95;100.00
58843;BME280;44614;54.356;10.100;2023-02-22T05:46:45;101314.22;;;4.91;100.00
58843;BME280;44614;54.356;10.100;2023-02-22T05:49:10;101306.56;;;4.86;100.00
58843;BME280;44614;54.356;10.100;2023-02-22T05:51:35;101315.56;;;4.95;100.00
58843;BME280;44614;54.356;10.100;2023-02-22T05:54:01;101310.09;;;4.95;100.00
58843;BME280;44614;54.356;10.100;2023-02-22T05:56:27;101311.84;;;4.96;100.00
58843;BME280;44614;54.356;10.100;2023-02-22T05:58:53;101307.38;;;4.95;100.00
58843;BME280;44614;54.356;10.100;2023-02-22T06:01:20;101311.84;;;4.96;100.00
58843;BME280;44614;54.356;10.100;2023-02-22T06:03:47;101320.00;;;4.96;100.00
58843;BME280;44614;54.356;10.100;2023-02-22T06:06:13;101318.47;;;4.94;100.00
58843;BME280;44614;54.356;10.100;2023-02-22T06:08:39;101320.16;;;4.95;100.00
58843;BME280;44614;54.356;10.100;2023-02-22T06:11:04;101311.31;;;4.93;100.00
58843;BME280;44614;54.356;10.100;2023-02-22T06:13:30;101312.84;;;4.95;100.00
58843;BME280;44614;54.356;10.100;2023-02-22T06:15:55;101317.28;;;4.96;100.00
58843;BME280;44614;54.356;10.100;2023-02-22T06:18:20;101317.94;;;4.98;100.00
58843;BME280;44614;54.356;10.100;2023-02-22T06:20:45;101309.75;;;4.98;100.00
58843;BME280;44614;54.356;10.100;2023-02-22T06:23:11;101310.09;;;4.95;100.00
58843;BME280;44614;54.356;10.100;2023-02-22T06:25:36;101311.13;;;4.94;100.00
58843;BME280;44614;54.356;10.100;2023-02-22T06:28:02;101319.63;;;4.99;100.00
58843;BME280;44614;54.356;10.100;2023-02-22T06:30:28;101318.63;;;5.00;100.00
58843;BME280;44614;54.356;10.100;2023-02-22T06:32:54;101273.94;;;4.78;100.00
58843;BME280;44614;54.356;10.100;2023-02-22T06:35:20;101305.16;;;4.99;100.00
58843;BME280;44614;54.356;10.100;2023-02-22T06:37:45;101316.41;;;5.04;100.00
58843;BME280;44614;54.356;10.100;2023-02-22T06:40:12;101309.22;;;5.03;100.00
58843;BME280;44614;54.356;10.100;2023-02-22T06:42:38;101264.09;;;4.77;100.00
58843;BME280;44614;54.356;10.100;2023-02-22T06:45:04;101280.50;;;4.92;100.00
58843;BME280;44614;54.356;10.100;2023-02-22T06:47:30;101311.06;;;5.10;100.00
58843;BME280;44614;54.356;10.100;2023-02-22T06:49:56;101305.28;;;5.13;100.00
58843;BME280;44614;54.356;10.100;2023-02-22T06:52:22;101278.44;;;5.02;100.00
58843;BME280;44614;54.356;10.100;2023-02-22T06:54:49;101299.81;;;5.22;100.00
58843;BME280;44614;54.356;10.100;2023-02-22T06:57:14;101294.00;;;5.25;100.00
58843;BME280;44614;54.356;10.100;2023-02-22T06:59:40;101296.19;;;5.29;100.00
58843;BME280;44614;54.356;10.100;2023-02-22T07:02:05;101299.41;;;5.33;100.00
58843;BME280;44614;54.356;10.100;2023-02-22T07:04:30;101301.59;;;5.37;100.00
58843;BME280;44614;54.356;10.100;2023-02-22T07:06:56;101297.50;;;5.42;100.00
58843;BME280;44614;54.356;10.100;2023-02-22T07:09:21;101307.69;;;5.48;100.00
58843;BME280;44614;54.356;10.100;2023-02-22T07:11:46;101313.63;;;5.51;100.00
58843;BME280;44614;54.356;10.100;2023-02-22T07:14:12;101310.56;;;5.54;100.00
58843;BME280;44614;54.356;10.100;2023-02-22T07:16:37;101306.78;;;5.55;100.00
58843;BME280;44614;54.356;10.100;2023-02-22T07:19:03;101290.19;;;5.42;100.00
58843;BME280;44614;54.356;10.100;2023-02-22T07:21:28;101311.34;;;5.63;100.00
58843;BME280;44614;54.356;10.100;2023-02-22T07:23:56;101316.59;;;5.65;100.00
58843;BME280;44614;54.356;10.100;2023-02-22T07:26:23;101311.84;;;5.67;100.00
58843;BME280;44614;54.356;10.100;2023-02-22T07:28:48;101313.38;;;5.69;100.00
58843;BME280;44614;54.356;10.100;2023-02-22T07:31:14;101294.56;;;5.51;100.00
58843;BME280;44614;54.356;10.100;2023-02-22T07:33:39;101288.06;;;5.52;100.00
58843;BME280;44614;54.356;10.100;2023-02-22T07:36:05;101328.31;;;5.73;100.00
58843;BME280;44614;54.356;10.100;2023-02-22T07:38:31;101299.78;;;5.61;100.00
58843;BME280;44614;54.356;10.100;2023-02-22T07:40:57;101318.06;;;5.75;100.00
58843;BME280;44614;54.356;10.100;2023-02-22T07:43:27;101324.88;;;5.79;100.00
58843;BME280;44614;54.356;10.100;2023-02-22T07:45:55;101307.53;;;5.72;100.00
58843;BME280;44614;54.356;10.100;2023-02-22T07:48:23;101319.41;;;5.79;100.00
58843;BME280;44614;54.356;10.100;2023-02-22T07:50:49;101318.00;;;5.83;100.00
58843;BME280;44614;54.356;10.100;2023-02-22T07:53:20;101323.31;;;5.85;100.00
58843;BME280;44614;54.356;10.100;2023-02-22T07:55:47;101298.66;;;5.78;100.00
58843;BME280;44614;54.356;10.100;2023-02-22T07:58:18;101327.53;;;5.87;100.00
58843;BME280;44614;54.356;10.100;2023-02-22T08:00:43;101333.66;;;5.90;100.00
58843;BME280;44614;54.356;10.100;2023-02-22T08:03:11;101320.72;;;5.92;100.00
58843;BME280;44614;54.356;10.100;2023-02-22T08:05:39;101291.19;;;5.72;100.00
58843;BME280;44614;54.356;10.100;2023-02-22T08:08:05;101323.94;;;5.95;100.00
58843;BME280;44614;54.356;10.100;2023-02-22T08:10:31;101314.75;;;5.96;100.00
58843;BME280;44614;54.356;10.100;2023-02-22T08:12:57;101321.69;;;5.99;100.00
58843;BME280;44614;54.356;10.100;2023-02-22T08:15:25;101327.63;;;6.02;100.00
58843;BME280;44614;54.356;10.100;2023-02-22T08:17:52;101315.72;;;6.03;100.00
58843;BME280;44614;54.356;10.100;2023-02-22T08:20:19;101319.94;;;6.06;100.00
58843;BME280;44614;54.356;10.100;2023-02-22T08:22:45;101310.28;;;6.03;100.00
58843;BME280;44614;54.356;10.100;2023-02-22T08:25:11;101314.38;;;5.99;100.00
58843;BME280;44614;54.356;10.100;2023-02-22T08:27:37;101317.69;;;6.09;100.00
58843;BME280;44614;54.356;10.100;2023-02-22T08:30:04;101319.41;;;6.10;100.00
58843;BME280;44614;54.356;10.100;2023-02-22T08:32:29;101319.22;;;6.12;100.00
58843;BME280;44614;54.356;10.100;2023-02-22T08:34:54;101314.41;;;6.14;100.00
58843;BME280;44614;54.356;10.100;2023-02-22T08:37:20;101311.25;;;6.10;100.00
58843;BME280;44614;54.356;10.100;2023-02-22T08:39:45;101318.66;;;6.17;100.00
58843;BME280;44614;54.356;10.100;2023-02-22T08:42:11;101310.97;;;6.20;100.00
58843;BME280;44614;54.356;10.100;2023-02-22T08:44:37;101309.56;;;6.24;100.00
58843;BME280;44614;54.356;10.100;2023-02-22T08:47:03;101278.53;;;6.10;100.00
58843;BME280;44614;54.356;10.100;2023-02-22T08:49:29;101292.16;;;6.25;100.00
58843;BME280;44614;54.356;10.100;2023-02-22T08:51:54;101299.91;;;6.37;100.00
58843;BME280;44614;54.356;10.100;2023-02-22T08:54:19;101298.34;;;6.42;100.00
58843;BME280;44614;54.356;10.100;2023-02-22T08:56:46;101292.69;;;6.44;100.00
58843;BME280;44614;54.356;10.100;2023-02-22T08:59:11;101290.81;;;6.44;100.00
58843;BME280;44614;54.356;10.100;2023-02-22T09:01:37;101291.47;;;6.46;100.00
58843;BME280;44614;54.356;10.100;2023-02-22T09:04:02;101288.38;;;6.49;100.00
58843;BME280;44614;54.356;10.100;2023-02-22T09:06:28;101288.66;;;6.54;100.00
58843;BME280;44614;54.356;10.100;2023-02-22T09:08:54;101247.25;;;6.36;100.00
58843;BME280;44614;54.356;10.100;2023-02-22T09:11:19;101267.31;;;6.58;100.00
58843;BME280;44614;54.356;10.100;2023-02-22T09:13:44;101266.75;;;6.63;100.00
58843;BME280;44614;54.356;10.100;2023-02-22T09:16:10;101274.56;;;6.66;100.00
58843;BME280;44614;54.356;10.100;2023-02-22T09:18:35;101275.16;;;6.76;100.00
58843;BME280;44614;54.356;10.100;2023-02-22T09:21:01;101274.22;;;6.83;100.00
58843;BME280;44614;54.356;10.100;2023-02-22T09:23:26;101274.50;;;6.89;100.00
58843;BME280;44614;54.356;10.100;2023-02-22T09:25:52;101269.75;;;6.97;100.00
58843;BME280;44614;54.356;10.100;2023-02-22T09:28:17;101269.66;;;7.05;100.00
58843;BME280;44614;54.356;10.100;2023-02-22T09:30:43;101261.47;;;7.05;100.00
58843;BME280;44614;54.356;10.100;2023-02-22T09:33:11;101261.00;;;7.02;100.00
58843;BME280;44614;54.356;10.100;2023-02-22T09:35:38;101263.66;;;7.10;100.00
58843;BME280;44614;54.356;10.100;2023-02-22T09:38:07;101256.56;;;7.16;100.00
58843;BME280;44614;54.356;10.100;2023-02-22T09:40:36;101258.34;;;7.23;100.00
58843;BME280;44614;54.356;10.100;2023-02-22T09:43:20;101254.03;;;7.29;100.00
58843;BME280;44614;54.356;10.100;2023-02-22T09:48:33;101232.09;;;7.22;100.00
58843;BME280;44614;54.356;10.100;2023-02-22T09:51:02;101245.88;;;7.36;100.00
58843;BME280;44614;54.356;10.100;2023-02-22T09:53:40;101241.22;;;7.29;100.00
58843;BME280;44614;54.356;10.100;2023-02-22T09:56:10;101239.31;;;7.30;100.00
58843;BME280;44614;54.356;10.100;2023-02-22T09:58:48;101251.44;;;7.42;100.00
58843;BME280;44614;54.356;10.100;2023-02-22T10:01:30;101247.75;;;7.50;100.00
58843;BME280;44614;54.356;10.100;2023-02-22T10:06:40;101246.47;;;7.67;100.00
58843;BME280;44614;54.356;10.100;2023-02-22T10:09:08;101240.88;;;7.75;100.00
58843;BME280;44614;54.356;10.100;2023-02-22T10:11:57;101238.97;;;7.76;100.00
58843;BME280;44614;54.356;10.100;2023-02-22T10:22:25;101238.19;;;8.03;100.00
58843;BME280;44614;54.356;10.100;2023-02-22T10:27:36;101239.53;;;8.14;100.00
58843;BME280;44614;54.356;10.100;2023-02-22T10:30:06;101242.34;;;8.21;100.00
58843;BME280;44614;54.356;10.100;2023-02-22T10:32:44;101245.97;;;8.28;100.00
58843;BME280;44614;54.356;10.100;2023-02-22T10:35:21;101233.59;;;8.32;100.00
58843;BME280;44614;54.356;10.100;2023-02-22T10:37:50;101230.44;;;8.35;100.00
58843;BME280;44614;54.356;10.100;2023-02-22T10:40:20;101232.63;;;8.40;100.00
58843;BME280;44614;54.356;10.100;2023-02-22T10:42:50;101227.91;;;8.34;100.00
58843;BME280;44614;54.356;10.100;2023-02-22T10:45:23;101230.59;;;8.48;100.00
58843;BME280;44614;54.356;10.100;2023-02-22T10:47:49;101225.34;;;8.53;100.00
58843;BME280;44614;54.356;10.100;2023-02-22T10:50:15;101205.28;;;8.46;100.00
58843;BME280;44614;54.356;10.100;2023-02-22T10:52:40;101214.00;;;8.57;100.00
58843;BME280;44614;54.356;10.100;2023-02-22T10:55:12;101221.41;;;8.63;100.00
58843;BME280;44614;54.356;10.100;2023-02-22T10:57:39;101207.50;;;8.64;100.00
58843;BME280;44614;54.356;10.100;2023-02-22T11:00:18;101201.81;;;8.59;100.00
58843;BME280;44614;54.356;10.100;2023-02-22T11:02:50;101203.72;;;8.59;100.00
58843;BME280;44614;54.356;10.100;2023-02-22T11:05:32;101197.78;;;8.55;100.00
58843;BME280;44614;54.356;10.100;2023-02-22T11:10:45;101187.22;;;8.52;100.00
58843;BME280;44614;54.356;10.100;2023-02-22T11:13:30;101188.06;;;8.52;100.00
58843;BME280;44614;54.356;10.100;2023-02-22T11:16:18;101178.00;;;8.60;100.00
58843;BME280;44614;54.356;10.100;2023-02-22T11:18:44;101191.53;;;8.68;100.00
58843;BME280;44614;54.356;10.100;2023-02-22T11:21:11;101160.75;;;8.66;100.00
58843;BME280;44614;54.356;10.100;2023-02-22T11:23:41;101174.94;;;8.76;100.00
58843;BME280;44614;54.356;10.100;2023-02-22T11:26:13;101155.91;;;8.61;100.00
58843;BME280;44614;54.356;10.100;2023-02-22T11:28:43;101171.63;;;8.87;100.00
58843;BME280;44614;54.356;10.100;2023-02-22T11:31:22;101169.28;;;8.84;100.00
58843;BME280;44614;54.356;10.100;2023-02-22T11:33:53;101174.75;;;8.84;100.00
58843;BME280;44614;54.356;10.100;2023-02-22T11:36:37;101162.97;;;8.84;100.00
58843;BME280;44614;54.356;10.100;2023-02-22T11:39:20;101161.28;;;8.83;100.00
58843;BME280;44614;54.356;10.100;2023-02-22T11:41:46;101159.59;;;8.88;100.00
58843;BME280;44614;54.356;10.100;2023-02-22T11:44:26;101154.56;;;8.92;100.00
58843;BME280;44614;54.356;10.100;2023-02-22T11:46:54;101150.63;;;9.01;100.00
58843;BME280;44614;54.356;10.100;2023-02-22T11:49:23;101113.88;;;8.82;100.00
58843;BME280;44614;54.356;10.100;2023-02-22T11:57:28;101151.44;;;9.01;100.00
58843;BME280;44614;54.356;10.100;2023-02-22T12:02:50;101137.97;;;9.07;100.00
58843;BME280;44614;54.356;10.100;2023-02-22T12:05:27;101139.50;;;9.16;100.00
58843;BME280;44614;54.356;10.100;2023-02-22T12:08:07;101143.06;;;9.16;100.00
58843;BME280;44614;54.356;10.100;2023-02-22T12:13:29;101139.53;;;9.36;100.00
58843;BME280;44614;54.356;10.100;2023-02-22T12:16:10;101139.53;;;9.42;100.00
58843;BME280;44614;54.356;10.100;2023-02-22T12:21:59;101124.97;;;9.42;100.00
58843;BME280;44614;54.356;10.100;2023-02-22T12:24:36;101129.22;;;9.51;100.00
58843;BME280;44614;54.356;10.100;2023-02-22T12:27:09;101123.53;;;9.66;100.00
58843;BME280;44614;54.356;10.100;2023-02-22T12:29:40;101132.19;;;9.69;100.00
58843;BME280;44614;54.356;10.100;2023-02-22T12:32:14;101131.94;;;9.58;99.35
58843;BME280;44614;54.356;10.100;2023-02-22T12:37:22;101106.19;;;9.12;100.00
58843;BME280;44614;54.356;10.100;2023-02-22T12:40:19;101127.50;;;9.30;100.00
58843;BME280;44614;54.356;10.100;2023-02-22T12:43:05;101129.38;;;9.23;99.81
58843;BME280;44614;54.356;10.100;2023-02-22T12:46:20;101129.38;;;9.30;100.00
58843;BME280;44614;54.356;10.100;2023-02-22T12:48:59;101119.91;;;9.45;100.00
58843;BME280;44614;54.356;10.100;2023-02-22T12:54:39;101123.09;;;9.56;100.00
58843;BME280;44614;54.356;10.100;2023-02-22T13:00:15;101111.06;;;9.57;100.00
58843;BME280;44614;54.356;10.100;2023-02-22T13:02:50;101110.00;;;9.58;100.00
58843;BME280;44614;54.356;10.100;2023-02-22T13:05:18;101105.59;;;9.43;99.16
58843;BME280;44614;54.356;10.100;2023-02-22T13:07:59;101107.47;;;9.36;100.00
58843;BME280;44614;54.356;10.100;2023-02-22T13:13:10;101099.06;;;9.31;100.00
58843;BME280;44614;54.356;10.100;2023-02-22T13:21:22;101099.66;;;9.33;100.00
58843;BME280;44614;54.356;10.100;2023-02-22T13:26:41;101089.72;;;9.19;100.00
58843;BME280;44614;54.356;10.100;2023-02-22T13:29:16;101092.28;;;9.27;100.00
58843;BME280;44614;54.356;10.100;2023-02-22T13:40:38;101080.03;;;9.10;100.00
58843;BME280;44614;54.356;10.100;2023-02-22T13:54:15;101074.56;;;9.16;100.00
58843;BME280;44614;54.356;10.100;2023-02-22T13:56:47;101072.25;;;9.20;100.00
58843;BME280;44614;54.356;10.100;2023-02-22T13:59:32;101073.28;;;9.19;100.00
58843;BME280;44614;54.356;10.100;2023-02-22T14:01:59;101049.84;;;8.96;100.00
58843;BME280;44614;54.356;10.100;2023-02-22T14:17:45;101062.53;;;9.11;100.00
58843;BME280;44614;54.356;10.100;2023-02-22T14:22:39;101062.53;;;8.97;100.00
58843;BME280;44614;54.356;10.100;2023-02-22T14:25:39;101062.28;;;8.92;100.00
58843;BME280;44614;54.356;10.100;2023-02-22T14:28:31;101051.75;;;8.89;100.00
58843;BME280;44614;54.356;10.100;2023-02-22T14:31:14;101067.09;;;8.84;100.00
58843;BME280;44614;54.356;10.100;2023-02-22T14:33:53;101061.41;;;8.85;100.00
58843;BME280;44614;54.356;10.100;2023-02-22T14:36:23;101061.41;;;8.85;100.00
58843;BME280;44614;54.356;10.100;2023-02-22T14:38:51;101051.50;;;8.84;100.00
58843;BME280;44614;54.356;10.100;2023-02-22T14:41:22;101055.09;;;8.85;100.00
58843;BME280;44614;54.356;10.100;2023-02-22T14:43:52;101047.53;;;8.87;100.00
58843;BME280;44614;54.356;10.100;2023-02-22T14:46:22;101055.94;;;8.85;100.00
58843;BME280;44614;54.356;10.100;2023-02-22T14:48:57;101044.56;;;8.82;100.00